createdAt,value
2019-04-23T00:01:23.840Z,48.17
2019-04-23T00:03:43.536Z,42.40
2019-04-23T00:06:21.689Z,46.95
2019-04-23T00:08:50.139Z,47.65
2019-04-23T00:11:24.068Z,34.98
2019-04-23T00:13:49.871Z,32.85
2019-04-23T00:16:26.391Z,46.70
2019-04-23T00:19:15.282Z,40.20
2019-04-23T00:26:36.625Z,68.60
2019-04-23T00:29:21.108Z,87.80
2019-04-23T00:31:36.292Z,54.10
2019-04-23T00:34:10.572Z,49.95
2019-04-23T00:36:44.514Z,50.03
2019-04-23T00:39:11.163Z,37.80
2019-04-23T00:41:47.476Z,57.17
2019-04-23T00:44:15.181Z,63.25
2019-04-23T00:46:48.656Z,55.52
2019-04-23T00:49:19.843Z,47.20
2019-04-23T00:51:49.729Z,40.88
2019-04-23T00:56:55.428Z,41.40
2019-04-23T00:59:26.923Z,43.02
2019-04-23T01:01:58.006Z,47.75
2019-04-23T01:04:32.780Z,53.92
2019-04-23T01:06:58.323Z,50.55
2019-04-23T01:09:42.276Z,37.93
2019-04-23T01:12:07.454Z,42.83
2019-04-23T01:14:32.587Z,47.95
2019-04-23T01:17:17.236Z,46.53
2019-04-23T01:19:57.713Z,44.73
2019-04-23T01:22:10.614Z,43.30
2019-04-23T01:24:46.691Z,45.40
2019-04-23T01:30:22.203Z,44.35
2019-04-23T01:33:02.605Z,46.40
2019-04-23T01:35:20.358Z,51.28
2019-04-23T01:37:55.690Z,54.35
2019-04-23T01:40:26.599Z,51.23
2019-04-23T01:42:58.684Z,49.03
2019-04-23T01:45:27.302Z,50.25
2019-04-23T01:47:59.709Z,50.10
2019-04-23T01:55:45.453Z,46.10
2019-04-23T02:00:45.163Z,50.43
2019-04-23T02:03:18.185Z,47.83
2019-04-23T02:05:48.347Z,49.63
2019-04-23T02:08:12.865Z,50.15
2019-04-23T02:11:00.602Z,50.08
2019-04-23T02:13:28.128Z,53.58
2019-04-23T02:15:55.794Z,56.35
2019-04-23T02:18:29.565Z,61.80
2019-04-23T02:21:02.443Z,60.20
2019-04-23T02:23:39.215Z,57.45
2019-04-23T02:26:10.862Z,57.55
2019-04-23T02:28:46.311Z,58.80
2019-04-23T02:33:49.826Z,59.03
2019-04-23T02:36:18.406Z,58.05
2019-04-23T02:41:26.556Z,67.00
2019-04-23T02:44:04.910Z,64.80
2019-04-23T02:46:15.194Z,62.50
2019-04-23T02:56:41.372Z,59.25
2019-04-23T03:01:54.894Z,55.38
2019-04-23T03:09:12.858Z,65.22
2019-04-23T03:14:15.870Z,61.50
2019-04-23T03:16:54.997Z,75.72
2019-04-23T03:19:25.567Z,84.67
2019-04-23T03:21:57.618Z,81.30
2019-04-23T03:25:05.339Z,84.03
2019-04-23T03:27:22.899Z,71.57
2019-04-23T03:29:57.577Z,69.87
2019-04-23T03:37:33.948Z,64.12
2019-04-23T03:42:38.640Z,67.67
2019-04-23T03:45:08.400Z,67.42
2019-04-23T03:55:16.294Z,61.42
2019-04-23T04:00:33.186Z,55.83
2019-04-23T04:05:22.309Z,47.45
2019-04-23T04:10:16.194Z,47.43
2019-04-23T04:15:53.524Z,55.15
2019-04-23T04:18:06.729Z,54.38
2019-04-23T04:23:14.663Z,51.18
2019-04-23T04:30:38.811Z,53.15
2019-04-23T04:33:31.584Z,54.65
2019-04-23T04:36:00.702Z,53.00
2019-04-23T04:46:17.327Z,54.42
2019-04-23T04:48:33.429Z,55.08
2019-04-23T04:51:28.902Z,54.90
2019-04-23T04:56:21.344Z,52.53
2019-04-23T04:58:46.525Z,52.95
2019-04-23T05:01:16.475Z,49.13
2019-04-23T05:03:58.458Z,52.08
2019-04-23T05:08:54.500Z,49.65
2019-04-23T05:13:51.562Z,47.35
2019-04-23T05:19:16.113Z,47.70
2019-04-23T05:21:43.152Z,48.55
2019-04-23T05:24:06.611Z,46.65
2019-04-23T05:29:14.553Z,47.25
2019-04-23T05:31:34.159Z,48.87
2019-04-23T05:34:07.986Z,46.48
2019-04-23T05:36:49.898Z,50.03
2019-04-23T05:39:20.836Z,50.80
2019-04-23T05:41:49.953Z,49.85
2019-04-23T05:44:21.173Z,48.80
2019-04-23T05:47:14.989Z,50.98
2019-04-23T05:54:30.045Z,47.75
2019-04-23T05:56:55.296Z,48.08
2019-04-23T05:59:42.834Z,48.08
2019-04-23T06:01:57.021Z,47.83
2019-04-23T06:04:32.480Z,46.10
2019-04-23T06:09:30.360Z,45.50
2019-04-23T06:12:18.742Z,46.30
2019-04-23T06:14:44.521Z,46.18
2019-04-23T06:19:43.196Z,49.15
2019-04-23T06:24:45.047Z,46.18
2019-04-23T06:27:18.242Z,50.10
2019-04-23T06:29:43.227Z,46.53
2019-04-23T06:32:19.350Z,47.15
2019-04-23T06:34:54.988Z,46.05
2019-04-23T06:37:27.070Z,46.58
2019-04-23T06:39:55.058Z,48.02
2019-04-23T06:42:22.858Z,47.98
2019-04-23T06:47:27.780Z,45.30
2019-04-23T06:49:59.342Z,42.10
2019-04-23T06:52:25.209Z,39.03
2019-04-23T06:55:11.516Z,37.08
2019-04-23T06:57:36.747Z,40.30
2019-04-23T07:00:08.012Z,42.85
2019-04-23T07:02:49.535Z,43.45
2019-04-23T07:05:20.601Z,42.83
2019-04-23T07:10:21.933Z,40.45
2019-04-23T07:12:52.292Z,42.90
2019-04-23T07:15:33.249Z,43.17
2019-04-23T07:17:47.756Z,42.53
2019-04-23T07:20:27.365Z,43.05
2019-04-23T07:22:56.904Z,41.02
2019-04-23T07:25:29.663Z,40.98
2019-04-23T07:27:59.015Z,36.15
2019-04-23T07:30:33.410Z,33.58
2019-04-23T07:33:11.557Z,31.40
2019-04-23T07:35:45.250Z,30.70
2019-04-23T07:38:40.646Z,22.52
2019-04-23T07:41:20.913Z,26.42
2019-04-23T07:44:00.985Z,29.25
2019-04-23T07:46:56.280Z,24.70
2019-04-23T07:49:10.179Z,23.70
2019-04-23T07:51:48.201Z,24.32
2019-04-23T07:56:57.883Z,22.00
2019-04-23T07:59:27.725Z,22.27
2019-04-23T08:01:53.296Z,19.23
2019-04-23T08:04:33.554Z,19.57
2019-04-23T08:06:55.953Z,19.70
2019-04-23T08:09:24.600Z,17.70
2019-04-23T08:11:56.159Z,19.02
2019-04-23T08:14:36.138Z,17.40
2019-04-23T08:16:58.217Z,18.23
2019-04-23T08:19:42.495Z,20.15
2019-04-23T08:22:12.814Z,22.58
2019-04-23T08:24:45.319Z,20.10
2019-04-23T08:27:24.071Z,21.70
2019-04-23T08:29:41.075Z,17.57
2019-04-23T08:32:21.470Z,17.25
2019-04-23T08:34:51.771Z,19.10
2019-04-23T08:37:26.595Z,18.67
2019-04-23T08:42:45.357Z,19.20
2019-04-23T08:45:28.542Z,19.57
2019-04-23T08:47:54.330Z,18.62
2019-04-23T08:50:24.864Z,19.37
2019-04-23T08:52:52.177Z,19.70
2019-04-23T08:57:47.426Z,18.57
2019-04-23T09:00:33.102Z,18.55
2019-04-23T09:03:00.208Z,17.20
2019-04-23T09:08:07.136Z,17.45
2019-04-23T09:13:33.234Z,17.17
2019-04-23T09:20:35.865Z,19.57
2019-04-23T09:23:13.217Z,21.05
2019-04-23T09:28:31.141Z,20.75
2019-04-23T09:30:57.801Z,20.50
2019-04-23T09:33:31.241Z,20.32
2019-04-23T09:36:06.806Z,20.10
2019-04-23T09:38:50.244Z,21.07
2019-04-23T09:43:57.876Z,17.87
2019-04-23T09:46:23.407Z,17.70
2019-04-23T09:49:15.512Z,18.50
2019-04-23T09:51:31.343Z,17.65
2019-04-23T09:54:02.918Z,18.37
2019-04-23T09:56:37.669Z,17.73
2019-04-23T09:59:08.968Z,16.20
2019-04-23T10:01:29.100Z,17.35
2019-04-23T10:03:57.606Z,18.07
2019-04-23T10:06:20.819Z,18.30
2019-04-23T10:08:50.036Z,17.77
2019-04-23T10:11:19.673Z,17.92
2019-04-23T10:13:48.407Z,17.90
2019-04-23T10:16:23.312Z,18.55
2019-04-23T10:18:57.379Z,18.45
2019-04-23T10:21:27.196Z,19.32
2019-04-23T10:23:57.204Z,20.12
2019-04-23T10:26:28.288Z,18.70
2019-04-23T10:29:07.624Z,19.98
2019-04-23T10:31:37.621Z,17.00
2019-04-23T10:34:08.255Z,16.60
2019-04-23T10:36:38.721Z,19.80
2019-04-23T10:39:17.541Z,18.77
2019-04-23T10:41:45.378Z,17.42
2019-04-23T10:44:14.568Z,17.55
2019-04-23T10:47:27.150Z,17.10
2019-04-23T10:49:59.783Z,15.83
2019-04-23T10:55:00.043Z,17.02
2019-04-23T10:57:25.074Z,17.50
2019-04-23T10:59:58.626Z,17.35
2019-04-23T11:02:47.358Z,18.70
2019-04-23T11:05:28.949Z,17.65
2019-04-23T11:07:45.450Z,16.65
2019-04-23T11:10:11.217Z,17.35
2019-04-23T11:13:02.549Z,17.25
2019-04-23T11:15:50.692Z,18.12
2019-04-23T11:17:59.492Z,17.48
2019-04-23T11:23:06.500Z,16.90
2019-04-23T11:25:57.711Z,17.17
2019-04-23T11:28:22.616Z,16.48
2019-04-23T11:30:55.276Z,17.50
2019-04-23T11:33:51.005Z,17.60
2019-04-23T11:36:35.545Z,17.67
2019-04-23T11:41:15.103Z,16.62
2019-04-23T11:43:37.710Z,16.27
2019-04-23T11:53:50.972Z,16.10
2019-04-23T11:56:46.058Z,17.48
2019-04-23T11:58:49.530Z,16.75
2019-04-23T12:01:42.809Z,16.17
2019-04-23T12:04:05.431Z,15.68
2019-04-23T12:06:51.080Z,16.00
2019-04-23T12:09:09.925Z,15.20
2019-04-23T12:14:39.126Z,16.02
2019-04-23T12:17:22.687Z,16.52
2019-04-23T12:22:18.062Z,14.60
2019-04-23T12:25:03.450Z,16.52
2019-04-23T12:27:25.368Z,15.88
2019-04-23T12:29:49.150Z,16.48
2019-04-23T12:40:15.390Z,15.68
2019-04-23T12:42:54.089Z,15.53
2019-04-23T12:45:20.626Z,15.25
2019-04-23T12:52:47.675Z,15.90
2019-04-23T12:55:23.408Z,16.32
2019-04-23T12:57:57.389Z,15.35
2019-04-23T13:02:52.009Z,15.35
2019-04-23T13:05:28.769Z,15.75
2019-04-23T13:08:25.290Z,14.73
2019-04-23T13:10:44.063Z,15.68
2019-04-23T13:13:18.904Z,15.28
2019-04-23T13:15:40.675Z,16.17
2019-04-23T13:18:23.618Z,15.18
2019-04-23T13:20:51.191Z,15.43
2019-04-23T13:23:30.768Z,16.02
2019-04-23T13:26:13.573Z,16.65
2019-04-23T13:34:19.537Z,17.25
2019-04-23T13:36:44.881Z,17.67
2019-04-23T13:39:18.659Z,17.05
2019-04-23T13:41:46.158Z,16.50
2019-04-23T13:44:19.607Z,16.57
2019-04-23T13:46:52.591Z,25.12
2019-04-23T13:49:28.459Z,17.15
2019-04-23T13:51:58.425Z,17.00
2019-04-23T13:54:46.634Z,18.90
2019-04-23T14:02:17.043Z,17.02
2019-04-23T14:04:46.813Z,16.70
2019-04-23T14:07:17.591Z,17.57
2019-04-23T14:10:00.555Z,25.17
2019-04-23T14:12:22.247Z,18.12
2019-04-23T14:15:02.286Z,17.98
2019-04-23T14:17:37.966Z,18.57
2019-04-23T14:20:03.807Z,17.57
2019-04-23T14:22:51.319Z,16.93
2019-04-23T14:32:35.256Z,17.35
2019-04-23T14:37:57.984Z,16.30
2019-04-23T14:40:21.950Z,18.92
2019-04-23T14:42:56.097Z,18.37
2019-04-23T14:45:44.239Z,18.85
2019-04-23T14:47:59.169Z,18.27
2019-04-23T14:50:34.841Z,16.48
2019-04-23T14:53:09.720Z,18.57
2019-04-23T14:58:17.670Z,19.77
2019-04-23T15:00:41.609Z,17.45
2019-04-23T15:03:20.245Z,18.05
2019-04-23T15:05:53.732Z,18.27
2019-04-23T15:08:15.611Z,17.77
2019-04-23T15:10:58.053Z,19.75
2019-04-23T15:13:16.892Z,17.75
2019-04-23T15:15:55.622Z,16.75
2019-04-23T15:18:23.945Z,18.17
2019-04-23T15:27:08.458Z,23.35
2019-04-23T15:27:13.487Z,18.65
2019-04-23T15:28:12.142Z,17.67
2019-04-23T15:31:22.403Z,19.65
2019-04-23T15:33:56.465Z,18.05
2019-04-23T15:43:52.221Z,19.30
2019-04-23T15:46:25.291Z,18.25
2019-04-23T15:49:05.652Z,19.37
2019-04-23T15:51:30.971Z,18.85
2019-04-23T15:53:57.013Z,24.25
2019-04-23T15:56:35.658Z,21.75
2019-04-23T16:01:31.962Z,25.43
2019-04-23T16:03:31.933Z,24.23
2019-04-23T16:06:04.708Z,23.20
2019-04-23T16:14:17.630Z,25.95
2019-04-23T16:19:44.934Z,28.17
2019-04-23T16:22:03.680Z,28.27
2019-04-23T16:24:24.895Z,28.92
2019-04-23T16:27:09.399Z,27.62
2019-04-23T16:32:15.337Z,32.98
2019-04-23T16:34:40.816Z,33.10
2019-04-23T16:39:58.350Z,45.03
2019-04-23T16:42:27.323Z,41.88
2019-04-23T16:47:26.499Z,64.55
2019-04-23T16:52:26.220Z,86.92
2019-04-23T16:55:00.554Z,65.78
2019-04-23T17:00:13.189Z,40.25
2019-04-23T17:03:02.668Z,27.73
2019-04-23T17:05:12.467Z,32.95
2019-04-23T17:07:36.279Z,30.62
2019-04-23T17:10:12.628Z,32.83
2019-04-23T17:12:46.923Z,34.53
2019-04-23T17:15:17.896Z,32.20
2019-04-23T17:17:49.913Z,34.92
2019-04-23T17:20:28.829Z,34.73
2019-04-23T17:22:59.550Z,36.08
2019-04-23T17:25:26.551Z,36.10
2019-04-23T17:30:37.341Z,36.25
2019-04-23T17:36:05.418Z,35.73
2019-04-23T17:38:37.691Z,46.23
2019-04-23T17:43:59.923Z,35.40
2019-04-23T17:46:26.928Z,34.10
2019-04-23T17:49:08.127Z,35.83
2019-04-23T17:51:51.978Z,40.65
2019-04-23T17:54:13.048Z,36.70
2019-04-23T17:56:51.160Z,39.23
2019-04-23T17:59:12.054Z,53.58
2019-04-23T18:01:54.257Z,48.63
2019-04-23T18:09:25.606Z,98.67
2019-04-23T18:11:53.429Z,126.95
2019-04-23T18:14:18.092Z,109.17
2019-04-23T18:16:57.457Z,30.97
2019-04-23T18:19:24.643Z,29.48
2019-04-23T18:22:15.561Z,36.68
2019-04-23T18:25:05.744Z,32.78
2019-04-23T18:27:33.771Z,23.92
2019-04-23T18:30:12.108Z,25.25
2019-04-23T18:33:12.476Z,31.10
2019-04-23T18:37:59.706Z,24.80
2019-04-23T18:40:28.592Z,23.10
2019-04-23T18:43:07.309Z,23.40
2019-04-23T18:45:39.089Z,24.60
2019-04-23T18:48:34.112Z,20.72
2019-04-23T18:50:53.692Z,23.70
2019-04-23T18:53:33.540Z,20.65
2019-04-23T18:58:36.592Z,19.00
2019-04-23T19:06:18.587Z,18.60
2019-04-23T19:11:37.113Z,18.05
2019-04-23T19:13:55.726Z,17.45
2019-04-23T19:16:24.589Z,17.92
2019-04-23T19:19:01.430Z,16.05
2019-04-23T19:21:47.354Z,15.75
2019-04-23T19:23:54.761Z,17.23
2019-04-23T19:26:55.238Z,17.10
2019-04-23T19:29:00.533Z,16.75
2019-04-23T19:31:50.657Z,16.77
2019-04-23T19:34:36.505Z,17.48
2019-04-23T19:37:45.752Z,16.80
2019-04-23T19:39:26.276Z,16.02
2019-04-23T19:42:02.028Z,14.63
2019-04-23T19:44:29.294Z,13.78
2019-04-23T19:47:09.532Z,15.98
2019-04-23T19:49:28.896Z,15.35
2019-04-23T20:02:07.377Z,15.58
2019-04-23T20:12:21.540Z,13.13
2019-04-23T20:17:37.759Z,11.57
2019-04-23T20:25:04.119Z,10.70
2019-04-23T20:27:25.770Z,11.38
2019-04-23T20:30:19.796Z,10.13
2019-04-23T20:38:15.380Z,11.57
2019-04-23T20:40:15.074Z,11.35
2019-04-23T20:42:48.188Z,10.65
2019-04-23T20:45:16.545Z,9.70
2019-04-23T20:48:05.001Z,10.10
2019-04-23T20:50:10.543Z,11.03
2019-04-23T20:52:47.606Z,9.68
2019-04-23T20:55:29.363Z,10.63
2019-04-23T20:58:07.232Z,10.55
2019-04-23T21:03:30.421Z,11.43
2019-04-23T21:05:43.092Z,10.82
2019-04-23T21:08:28.805Z,10.28
2019-04-23T21:10:51.045Z,10.98
2019-04-23T21:13:42.792Z,10.40
2019-04-23T21:15:54.573Z,10.53
2019-04-23T21:18:33.089Z,10.70
2019-04-23T21:21:06.338Z,9.65
2019-04-23T21:23:28.770Z,9.88
2019-04-23T21:26:08.191Z,10.23
2019-04-23T21:28:40.161Z,9.93
2019-04-23T21:41:50.948Z,10.60
2019-04-23T21:46:49.065Z,10.88
2019-04-23T21:49:26.969Z,10.63
2019-04-23T21:54:25.734Z,10.80
2019-04-23T21:56:48.267Z,12.33
2019-04-23T21:59:13.376Z,22.32
2019-04-23T22:01:55.824Z,11.25
2019-04-23T22:06:59.670Z,11.33
2019-04-23T22:12:16.920Z,11.60
2019-04-23T22:17:10.209Z,10.95
2019-04-23T22:19:38.351Z,11.30
2019-04-23T22:22:05.849Z,11.05
2019-04-23T22:24:48.282Z,11.45
2019-04-23T22:27:11.703Z,11.15
2019-04-23T22:29:44.696Z,11.48
2019-04-23T22:32:12.845Z,12.23
2019-04-23T22:34:58.837Z,11.50
2019-04-23T22:39:52.795Z,11.35
2019-04-23T22:42:36.683Z,12.88
2019-04-23T22:47:34.585Z,27.02
2019-04-23T22:52:31.487Z,16.00
2019-04-23T22:55:12.730Z,15.78
2019-04-23T22:58:01.918Z,16.42
2019-04-23T23:00:14.621Z,16.60
2019-04-23T23:05:53.532Z,22.15
2019-04-23T23:08:07.874Z,21.35
2019-04-23T23:10:46.151Z,24.15
2019-04-23T23:15:49.187Z,22.20
2019-04-23T23:23:18.142Z,16.67
2019-04-23T23:25:50.922Z,17.57
2019-04-23T23:31:02.000Z,18.50
2019-04-23T23:33:23.287Z,17.35
2019-04-23T23:35:58.878Z,16.85
2019-04-23T23:38:33.364Z,14.78
2019-04-23T23:43:33.885Z,15.25
2019-04-23T23:46:15.218Z,15.58
2019-04-23T23:48:35.941Z,15.72
2019-04-23T23:51:36.684Z,15.15
2019-04-23T23:56:17.379Z,14.55
2019-04-23T23:58:53.965Z,15.23
